Terminal Aerodrome Forecast
Issued by NWS

Home | Current Version | Previous Version | Graphics & Text | Print | Product List | Glossary On
Versions: 1 2 3 4 5 6 7 8 9 10 11 12 13 14 15 16 17 18 19
000
FTUS43 KTOP 211724
TAFFOE
TAF
KFOE 211724Z 2118/2218 19010KT P6SM SCT060 BKN150
     FM212200 18011KT P6SM VCTS SCT050CB BKN090
     FM220300 16005KT 3SM TSRA SCT035 OVC080CB
     FM221200 36009KT P6SM SCT025 OVC060
      TEMPO 2214/2218 BKN022=

USA.gov is the U.S. government's official web portal to all federal, state and local government web resources and services.